sensor_id;sensor_type;location;lat;lon;timestamp;P1;durP1;ratioP1;P2;durP2;ratioP2
16866;SDS011;8550;52.596;13.320;2023-02-13T00:01:58;6.23;;;2.20;;
16866;SDS011;8550;52.596;13.320;2023-02-13T00:06:59;4.60;;;1.50;;
16866;SDS011;8550;52.596;13.320;2023-02-13T00:12:03;5.75;;;1.80;;
16866;SDS011;8550;52.596;13.320;2023-02-13T00:17:05;5.18;;;1.45;;
16866;SDS011;8550;52.596;13.320;2023-02-13T00:22:08;4.70;;;1.27;;
16866;SDS011;8550;52.596;13.320;2023-02-13T00:27:11;5.53;;;1.10;;
16866;SDS011;8550;52.596;13.320;2023-02-13T00:32:13;3.42;;;0.80;;
16866;SDS011;8550;52.596;13.320;2023-02-13T00:37:15;2.83;;;1.00;;
16866;SDS011;8550;52.596;13.320;2023-02-13T00:42:19;3.13;;;0.70;;
16866;SDS011;8550;52.596;13.320;2023-02-13T00:47:23;5.32;;;1.20;;
16866;SDS011;8550;52.596;13.320;2023-02-13T00:52:25;2.30;;;0.67;;
16866;SDS011;8550;52.596;13.320;2023-02-13T00:57:29;2.33;;;0.70;;
16866;SDS011;8550;52.596;13.320;2023-02-13T01:02:31;3.40;;;1.10;;
16866;SDS011;8550;52.596;13.320;2023-02-13T01:07:35;2.97;;;0.70;;
16866;SDS011;8550;52.596;13.320;2023-02-13T01:12:38;3.37;;;1.00;;
16866;SDS011;8550;52.596;13.320;2023-02-13T01:17:40;4.93;;;1.17;;
16866;SDS011;8550;52.596;13.320;2023-02-13T01:22:42;2.47;;;0.80;;
16866;SDS011;8550;52.596;13.320;2023-02-13T01:27:46;2.23;;;0.57;;
16866;SDS011;8550;52.596;13.320;2023-02-13T01:32:48;3.25;;;0.90;;
16866;SDS011;8550;52.596;13.320;2023-02-13T01:37:50;3.25;;;1.02;;
16866;SDS011;8550;52.596;13.320;2023-02-13T01:42:53;3.73;;;1.40;;
16866;SDS011;8550;52.596;13.320;2023-02-13T01:47:55;5.57;;;1.33;;
16866;SDS011;8550;52.596;13.320;2023-02-13T01:53:00;2.55;;;0.98;;
16866;SDS011;8550;52.596;13.320;2023-02-13T01:58:10;1.63;;;0.55;;
16866;SDS011;8550;52.596;13.320;2023-02-13T02:03:16;2.70;;;0.50;;
16866;SDS011;8550;52.596;13.320;2023-02-13T02:08:21;5.00;;;1.15;;
16866;SDS011;8550;52.596;13.320;2023-02-13T02:13:25;3.72;;;1.02;;
16866;SDS011;8550;52.596;13.320;2023-02-13T02:18:27;5.83;;;1.30;;
16866;SDS011;8550;52.596;13.320;2023-02-13T02:23:35;3.30;;;1.15;;
16866;SDS011;8550;52.596;13.320;2023-02-13T02:28:57;4.97;;;1.38;;
16866;SDS011;8550;52.596;13.320;2023-02-13T02:34:18;3.10;;;1.33;;
16866;SDS011;8550;52.596;13.320;2023-02-13T02:39:29;3.93;;;0.97;;
16866;SDS011;8550;52.596;13.320;2023-02-13T02:44:38;3.78;;;1.20;;
16866;SDS011;8550;52.596;13.320;2023-02-13T02:49:46;5.40;;;1.50;;
16866;SDS011;8550;52.596;13.320;2023-02-13T02:54:59;4.07;;;1.30;;
16866;SDS011;8550;52.596;13.320;2023-02-13T03:00:09;5.38;;;1.60;;
16866;SDS011;8550;52.596;13.320;2023-02-13T03:05:31;4.20;;;1.42;;
16866;SDS011;8550;52.596;13.320;2023-02-13T03:10:53;4.53;;;1.17;;
16866;SDS011;8550;52.596;13.320;2023-02-13T03:16:14;4.50;;;1.20;;
16866;SDS011;8550;52.596;13.320;2023-02-13T03:21:38;3.65;;;1.33;;
16866;SDS011;8550;52.596;13.320;2023-02-13T03:27:07;5.77;;;1.90;;
16866;SDS011;8550;52.596;13.320;2023-02-13T03:32:22;5.57;;;1.77;;
16866;SDS011;8550;52.596;13.320;2023-02-13T03:37:33;3.70;;;1.30;;
16866;SDS011;8550;52.596;13.320;2023-02-13T03:42:55;4.22;;;1.83;;
16866;SDS011;8550;52.596;13.320;2023-02-13T03:48:03;6.73;;;1.87;;
16866;SDS011;8550;52.596;13.320;2023-02-13T03:53:31;5.72;;;1.85;;
16866;SDS011;8550;52.596;13.320;2023-02-13T03:58:40;6.43;;;2.17;;
16866;SDS011;8550;52.596;13.320;2023-02-13T04:04:04;5.93;;;2.37;;
16866;SDS011;8550;52.596;13.320;2023-02-13T04:09:11;6.75;;;2.83;;
16866;SDS011;8550;52.596;13.320;2023-02-13T04:14:15;7.45;;;2.42;;
16866;SDS011;8550;52.596;13.320;2023-02-13T04:19:22;7.00;;;2.87;;
16866;SDS011;8550;52.596;13.320;2023-02-13T04:24:27;6.50;;;2.30;;
16866;SDS011;8550;52.596;13.320;2023-02-13T04:29:29;7.05;;;2.67;;
16866;SDS011;8550;52.596;13.320;2023-02-13T04:34:31;12.88;;;2.50;;
16866;SDS011;8550;52.596;13.320;2023-02-13T04:39:34;8.03;;;2.70;;
16866;SDS011;8550;52.596;13.320;2023-02-13T04:44:36;8.82;;;3.47;;
16866;SDS011;8550;52.596;13.320;2023-02-13T04:49:38;7.68;;;2.83;;
16866;SDS011;8550;52.596;13.320;2023-02-13T04:54:41;8.07;;;3.37;;
16866;SDS011;8550;52.596;13.320;2023-02-13T04:59:43;11.02;;;3.78;;
16866;SDS011;8550;52.596;13.320;2023-02-13T05:04:45;11.18;;;4.20;;
16866;SDS011;8550;52.596;13.320;2023-02-13T05:09:48;8.87;;;3.63;;
16866;SDS011;8550;52.596;13.320;2023-02-13T05:14:51;5.93;;;2.83;;
16866;SDS011;8550;52.596;13.320;2023-02-13T05:19:53;8.13;;;3.22;;
16866;SDS011;8550;52.596;13.320;2023-02-13T05:24:56;7.57;;;3.25;;
16866;SDS011;8550;52.596;13.320;2023-02-13T05:29:58;6.17;;;2.73;;
16866;SDS011;8550;52.596;13.320;2023-02-13T05:35:00;7.60;;;2.85;;
16866;SDS011;8550;52.596;13.320;2023-02-13T05:40:04;5.03;;;2.20;;
16866;SDS011;8550;52.596;13.320;2023-02-13T05:45:07;7.50;;;3.40;;
16866;SDS011;8550;52.596;13.320;2023-02-13T05:50:10;7.78;;;2.90;;
16866;SDS011;8550;52.596;13.320;2023-02-13T05:55:13;6.70;;;3.15;;
16866;SDS011;8550;52.596;13.320;2023-02-13T06:00:16;6.57;;;2.93;;
16866;SDS011;8550;52.596;13.320;2023-02-13T06:05:18;5.60;;;1.87;;
16866;SDS011;8550;52.596;13.320;2023-02-13T06:10:22;5.32;;;2.15;;
16866;SDS011;8550;52.596;13.320;2023-02-13T06:15:24;5.35;;;2.05;;
16866;SDS011;8550;52.596;13.320;2023-02-13T06:20:25;8.07;;;2.37;;
16866;SDS011;8550;52.596;13.320;2023-02-13T06:25:29;5.85;;;2.47;;
16866;SDS011;8550;52.596;13.320;2023-02-13T06:30:31;8.70;;;2.80;;
16866;SDS011;8550;52.596;13.320;2023-02-13T06:35:33;6.13;;;2.17;;
16866;SDS011;8550;52.596;13.320;2023-02-13T06:40:36;7.68;;;2.42;;
16866;SDS011;8550;52.596;13.320;2023-02-13T06:45:38;4.90;;;1.88;;
16866;SDS011;8550;52.596;13.320;2023-02-13T06:50:40;6.50;;;2.93;;
16866;SDS011;8550;52.596;13.320;2023-02-13T06:55:43;5.00;;;2.03;;
16866;SDS011;8550;52.596;13.320;2023-02-13T07:00:45;5.88;;;2.60;;
16866;SDS011;8550;52.596;13.320;2023-02-13T07:05:47;8.55;;;2.55;;
16866;SDS011;8550;52.596;13.320;2023-02-13T07:10:52;8.10;;;2.90;;
16866;SDS011;8550;52.596;13.320;2023-02-13T07:15:54;5.05;;;2.10;;
16866;SDS011;8550;52.596;13.320;2023-02-13T07:21:00;7.32;;;2.70;;
16866;SDS011;8550;52.596;13.320;2023-02-13T07:26:04;5.83;;;2.30;;
16866;SDS011;8550;52.596;13.320;2023-02-13T07:31:06;6.28;;;2.30;;
16866;SDS011;8550;52.596;13.320;2023-02-13T07:36:08;7.88;;;2.67;;
16866;SDS011;8550;52.596;13.320;2023-02-13T07:41:11;6.00;;;2.17;;
16866;SDS011;8550;52.596;13.320;2023-02-13T07:46:13;6.10;;;2.33;;
16866;SDS011;8550;52.596;13.320;2023-02-13T07:51:15;6.68;;;2.72;;
16866;SDS011;8550;52.596;13.320;2023-02-13T07:56:18;7.15;;;2.90;;
16866;SDS011;8550;52.596;13.320;2023-02-13T08:01:20;6.97;;;2.20;;
16866;SDS011;8550;52.596;13.320;2023-02-13T08:06:22;6.95;;;2.85;;
16866;SDS011;8550;52.596;13.320;2023-02-13T08:11:27;5.85;;;2.55;;
16866;SDS011;8550;52.596;13.320;2023-02-13T08:16:50;5.60;;;2.50;;
16866;SDS011;8550;52.596;13.320;2023-02-13T08:21:53;4.85;;;2.03;;
16866;SDS011;8550;52.596;13.320;2023-02-13T08:26:56;5.88;;;2.10;;
16866;SDS011;8550;52.596;13.320;2023-02-13T08:31:58;6.87;;;2.63;;
16866;SDS011;8550;52.596;13.320;2023-02-13T08:37:00;5.00;;;2.30;;
16866;SDS011;8550;52.596;13.320;2023-02-13T08:42:03;7.03;;;2.42;;
16866;SDS011;8550;52.596;13.320;2023-02-13T08:47:05;6.43;;;2.50;;
16866;SDS011;8550;52.596;13.320;2023-02-13T08:52:07;4.63;;;1.70;;
16866;SDS011;8550;52.596;13.320;2023-02-13T08:57:10;5.18;;;1.90;;
16866;SDS011;8550;52.596;13.320;2023-02-13T09:02:12;9.63;;;2.55;;
16866;SDS011;8550;52.596;13.320;2023-02-13T09:07:14;5.83;;;2.53;;
16866;SDS011;8550;52.596;13.320;2023-02-13T09:12:18;7.72;;;2.83;;
16866;SDS011;8550;52.596;13.320;2023-02-13T09:17:19;6.43;;;2.33;;
16866;SDS011;8550;52.596;13.320;2023-02-13T09:22:21;6.27;;;2.10;;
16866;SDS011;8550;52.596;13.320;2023-02-13T09:27:24;6.23;;;2.83;;
16866;SDS011;8550;52.596;13.320;2023-02-13T09:32:26;5.05;;;2.05;;
16866;SDS011;8550;52.596;13.320;2023-02-13T09:37:28;8.82;;;3.88;;
16866;SDS011;8550;52.596;13.320;2023-02-13T09:42:32;5.67;;;2.27;;
16866;SDS011;8550;52.596;13.320;2023-02-13T09:47:38;4.50;;;1.67;;
16866;SDS011;8550;52.596;13.320;2023-02-13T09:52:42;6.78;;;2.60;;
16866;SDS011;8550;52.596;13.320;2023-02-13T09:57:49;5.93;;;2.50;;
16866;SDS011;8550;52.596;13.320;2023-02-13T10:03:03;5.22;;;2.45;;
16866;SDS011;8550;52.596;13.320;2023-02-13T10:08:20;6.72;;;2.83;;
16866;SDS011;8550;52.596;13.320;2023-02-13T10:13:39;8.30;;;3.53;;
16866;SDS011;8550;52.596;13.320;2023-02-13T10:18:51;6.77;;;2.80;;
16866;SDS011;8550;52.596;13.320;2023-02-13T10:23:56;8.80;;;3.55;;
16866;SDS011;8550;52.596;13.320;2023-02-13T10:29:03;8.90;;;3.25;;
16866;SDS011;8550;52.596;13.320;2023-02-13T10:34:27;11.70;;;3.10;;
16866;SDS011;8550;52.596;13.320;2023-02-13T10:39:35;7.53;;;3.00;;
16866;SDS011;8550;52.596;13.320;2023-02-13T10:44:47;7.10;;;3.67;;
16866;SDS011;8550;52.596;13.320;2023-02-13T10:50:02;9.60;;;4.00;;
16866;SDS011;8550;52.596;13.320;2023-02-13T10:55:15;9.50;;;3.00;;
16866;SDS011;8550;52.596;13.320;2023-02-13T11:00:34;8.93;;;3.15;;
16866;SDS011;8550;52.596;13.320;2023-02-13T11:05:41;7.80;;;3.67;;
16866;SDS011;8550;52.596;13.320;2023-02-13T11:10:43;11.40;;;4.33;;
16866;SDS011;8550;52.596;13.320;2023-02-13T11:21:09;9.13;;;3.90;;
16866;SDS011;8550;52.596;13.320;2023-02-13T11:26:20;9.80;;;4.17;;
16866;SDS011;8550;52.596;13.320;2023-02-13T11:31:27;12.00;;;5.03;;
16866;SDS011;8550;52.596;13.320;2023-02-13T11:36:31;11.65;;;4.05;;
16866;SDS011;8550;52.596;13.320;2023-02-13T11:41:38;11.73;;;5.33;;
16866;SDS011;8550;52.596;13.320;2023-02-13T11:46:45;9.35;;;3.88;;
16866;SDS011;8550;52.596;13.320;2023-02-13T11:51:49;9.38;;;4.68;;
16866;SDS011;8550;52.596;13.320;2023-02-13T11:56:53;11.13;;;4.63;;
16866;SDS011;8550;52.596;13.320;2023-02-13T12:02:10;14.17;;;5.20;;
16866;SDS011;8550;52.596;13.320;2023-02-13T12:07:19;8.43;;;4.88;;
16866;SDS011;8550;52.596;13.320;2023-02-13T12:12:24;13.23;;;5.47;;
16866;SDS011;8550;52.596;13.320;2023-02-13T12:17:33;14.50;;;6.13;;
16866;SDS011;8550;52.596;13.320;2023-02-13T12:22:38;12.40;;;4.90;;
16866;SDS011;8550;52.596;13.320;2023-02-13T12:27:49;9.15;;;4.57;;
16866;SDS011;8550;52.596;13.320;2023-02-13T12:33:01;8.80;;;3.23;;
16866;SDS011;8550;52.596;13.320;2023-02-13T12:38:19;16.55;;;5.43;;
16866;SDS011;8550;52.596;13.320;2023-02-13T12:43:46;14.13;;;5.43;;
16866;SDS011;8550;52.596;13.320;2023-02-13T12:49:13;8.67;;;4.50;;
16866;SDS011;8550;52.596;13.320;2023-02-13T12:54:33;14.83;;;5.47;;
16866;SDS011;8550;52.596;13.320;2023-02-13T12:59:52;12.32;;;5.22;;
16866;SDS011;8550;52.596;13.320;2023-02-13T13:05:07;9.20;;;4.07;;
16866;SDS011;8550;52.596;13.320;2023-02-13T13:10:23;10.97;;;4.43;;
16866;SDS011;8550;52.596;13.320;2023-02-13T13:15:39;9.95;;;4.78;;
16866;SDS011;8550;52.596;13.320;2023-02-13T13:20:51;8.32;;;4.13;;
16866;SDS011;8550;52.596;13.320;2023-02-13T13:26:02;10.60;;;4.63;;
16866;SDS011;8550;52.596;13.320;2023-02-13T13:31:12;7.97;;;3.15;;
16866;SDS011;8550;52.596;13.320;2023-02-13T13:36:18;11.73;;;5.18;;
16866;SDS011;8550;52.596;13.320;2023-02-13T13:41:26;9.80;;;4.37;;
16866;SDS011;8550;52.596;13.320;2023-02-13T13:46:37;10.40;;;4.47;;
16866;SDS011;8550;52.596;13.320;2023-02-13T13:51:53;9.98;;;4.32;;
16866;SDS011;8550;52.596;13.320;2023-02-13T13:57:10;9.68;;;3.63;;
16866;SDS011;8550;52.596;13.320;2023-02-13T14:07:42;10.93;;;5.07;;
16866;SDS011;8550;52.596;13.320;2023-02-13T14:12:45;9.57;;;3.78;;
16866;SDS011;8550;52.596;13.320;2023-02-13T14:17:53;9.73;;;3.97;;
16866;SDS011;8550;52.596;13.320;2023-02-13T14:23:05;9.13;;;3.88;;
16866;SDS011;8550;52.596;13.320;2023-02-13T14:28:19;14.68;;;5.05;;
16866;SDS011;8550;52.596;13.320;2023-02-13T14:33:26;11.57;;;4.53;;
16866;SDS011;8550;52.596;13.320;2023-02-13T14:38:31;7.30;;;3.40;;
16866;SDS011;8550;52.596;13.320;2023-02-13T14:43:35;9.15;;;4.03;;
16866;SDS011;8550;52.596;13.320;2023-02-13T14:48:49;10.00;;;4.18;;
16866;SDS011;8550;52.596;13.320;2023-02-13T14:54:00;12.83;;;5.40;;
16866;SDS011;8550;52.596;13.320;2023-02-13T14:59:09;10.50;;;4.55;;
16866;SDS011;8550;52.596;13.320;2023-02-13T15:04:16;11.55;;;4.10;;
16866;SDS011;8550;52.596;13.320;2023-02-13T15:09:29;10.00;;;4.73;;
16866;SDS011;8550;52.596;13.320;2023-02-13T15:14:35;12.27;;;4.38;;
16866;SDS011;8550;52.596;13.320;2023-02-13T15:19:41;13.50;;;5.07;;
16866;SDS011;8550;52.596;13.320;2023-02-13T15:24:47;9.60;;;3.53;;
16866;SDS011;8550;52.596;13.320;2023-02-13T15:29:54;8.57;;;4.40;;
16866;SDS011;8550;52.596;13.320;2023-02-13T15:34:57;10.05;;;3.92;;
16866;SDS011;8550;52.596;13.320;2023-02-13T15:40:14;13.27;;;5.20;;
16866;SDS011;8550;52.596;13.320;2023-02-13T15:45:21;10.23;;;4.80;;
16866;SDS011;8550;52.596;13.320;2023-02-13T15:50:27;13.23;;;5.20;;
16866;SDS011;8550;52.596;13.320;2023-02-13T15:55:33;12.38;;;4.57;;
16866;SDS011;8550;52.596;13.320;2023-02-13T16:00:38;14.80;;;4.73;;
16866;SDS011;8550;52.596;13.320;2023-02-13T16:05:41;11.80;;;4.68;;
16866;SDS011;8550;52.596;13.320;2023-02-13T16:10:48;11.70;;;4.63;;
16866;SDS011;8550;52.596;13.320;2023-02-13T16:15:50;11.53;;;4.30;;
16866;SDS011;8550;52.596;13.320;2023-02-13T16:20:52;11.67;;;5.10;;
16866;SDS011;8550;52.596;13.320;2023-02-13T16:26:00;11.77;;;4.35;;
16866;SDS011;8550;52.596;13.320;2023-02-13T16:31:06;13.98;;;5.00;;
16866;SDS011;8550;52.596;13.320;2023-02-13T16:36:18;13.90;;;5.20;;
16866;SDS011;8550;52.596;13.320;2023-02-13T16:41:30;10.93;;;4.85;;
16866;SDS011;8550;52.596;13.320;2023-02-13T16:46:33;12.85;;;4.43;;
16866;SDS011;8550;52.596;13.320;2023-02-13T16:51:37;13.53;;;5.23;;
16866;SDS011;8550;52.596;13.320;2023-02-13T16:56:43;14.80;;;5.65;;
16866;SDS011;8550;52.596;13.320;2023-02-13T17:02:00;11.45;;;4.38;;
16866;SDS011;8550;52.596;13.320;2023-02-13T17:07:04;11.77;;;4.27;;
16866;SDS011;8550;52.596;13.320;2023-02-13T17:12:14;12.83;;;4.53;;
16866;SDS011;8550;52.596;13.320;2023-02-13T17:17:18;12.18;;;6.53;;
16866;SDS011;8550;52.596;13.320;2023-02-13T17:22:26;11.15;;;4.65;;
16866;SDS011;8550;52.596;13.320;2023-02-13T17:27:33;12.77;;;5.10;;
16866;SDS011;8550;52.596;13.320;2023-02-13T17:32:35;15.07;;;6.68;;
16866;SDS011;8550;52.596;13.320;2023-02-13T17:37:37;14.63;;;6.20;;
16866;SDS011;8550;52.596;13.320;2023-02-13T17:42:41;10.97;;;5.57;;
16866;SDS011;8550;52.596;13.320;2023-02-13T17:47:44;13.63;;;4.65;;
16866;SDS011;8550;52.596;13.320;2023-02-13T17:52:46;11.38;;;4.93;;
16866;SDS011;8550;52.596;13.320;2023-02-13T17:57:50;18.00;;;6.93;;
16866;SDS011;8550;52.596;13.320;2023-02-13T18:02:55;9.80;;;5.30;;
16866;SDS011;8550;52.596;13.320;2023-02-13T18:07:58;6.75;;;3.58;;
16866;SDS011;8550;52.596;13.320;2023-02-13T18:13:03;9.85;;;5.28;;
16866;SDS011;8550;52.596;13.320;2023-02-13T18:18:06;12.83;;;5.30;;
16866;SDS011;8550;52.596;13.320;2023-02-13T18:23:08;13.63;;;6.60;;
16866;SDS011;8550;52.596;13.320;2023-02-13T18:28:11;19.00;;;6.32;;
16866;SDS011;8550;52.596;13.320;2023-02-13T18:33:13;15.77;;;6.70;;
16866;SDS011;8550;52.596;13.320;2023-02-13T18:38:15;21.08;;;6.10;;
16866;SDS011;8550;52.596;13.320;2023-02-13T18:43:18;13.90;;;5.55;;
16866;SDS011;8550;52.596;13.320;2023-02-13T18:48:21;11.53;;;5.27;;
16866;SDS011;8550;52.596;13.320;2023-02-13T18:53:23;13.33;;;5.50;;
16866;SDS011;8550;52.596;13.320;2023-02-13T18:58:26;20.90;;;8.77;;
16866;SDS011;8550;52.596;13.320;2023-02-13T19:03:28;14.90;;;6.32;;
16866;SDS011;8550;52.596;13.320;2023-02-13T19:08:30;20.03;;;5.73;;
16866;SDS011;8550;52.596;13.320;2023-02-13T19:13:36;16.48;;;6.57;;
16866;SDS011;8550;52.596;13.320;2023-02-13T19:18:38;9.85;;;4.75;;
16866;SDS011;8550;52.596;13.320;2023-02-13T19:23:41;12.50;;;5.53;;
16866;SDS011;8550;52.596;13.320;2023-02-13T19:28:44;12.10;;;5.80;;
16866;SDS011;8550;52.596;13.320;2023-02-13T19:33:46;15.80;;;6.78;;
16866;SDS011;8550;52.596;13.320;2023-02-13T19:38:52;16.17;;;7.17;;
16866;SDS011;8550;52.596;13.320;2023-02-13T19:43:56;11.57;;;4.90;;
16866;SDS011;8550;52.596;13.320;2023-02-13T19:48:59;17.95;;;6.85;;
16866;SDS011;8550;52.596;13.320;2023-02-13T19:54:03;14.30;;;6.25;;
16866;SDS011;8550;52.596;13.320;2023-02-13T19:59:09;17.43;;;6.23;;
16866;SDS011;8550;52.596;13.320;2023-02-13T20:04:12;17.77;;;5.72;;
16866;SDS011;8550;52.596;13.320;2023-02-13T20:09:14;14.32;;;5.05;;
16866;SDS011;8550;52.596;13.320;2023-02-13T20:14:18;11.17;;;5.27;;
16866;SDS011;8550;52.596;13.320;2023-02-13T20:19:19;23.98;;;10.57;;
16866;SDS011;8550;52.596;13.320;2023-02-13T20:24:21;15.57;;;5.60;;
16866;SDS011;8550;52.596;13.320;2023-02-13T20:29:25;15.63;;;6.00;;
16866;SDS011;8550;52.596;13.320;2023-02-13T20:34:26;18.87;;;7.17;;
16866;SDS011;8550;52.596;13.320;2023-02-13T20:39:28;16.50;;;5.32;;
16866;SDS011;8550;52.596;13.320;2023-02-13T20:44:32;19.90;;;6.70;;
16866;SDS011;8550;52.596;13.320;2023-02-13T20:49:34;11.10;;;4.73;;
16866;SDS011;8550;52.596;13.320;2023-02-13T20:54:36;19.67;;;6.95;;
16866;SDS011;8550;52.596;13.320;2023-02-13T20:59:41;18.20;;;5.95;;
16866;SDS011;8550;52.596;13.320;2023-02-13T21:04:43;16.63;;;5.60;;
16866;SDS011;8550;52.596;13.320;2023-02-13T21:09:46;11.43;;;4.75;;
16866;SDS011;8550;52.596;13.320;2023-02-13T21:14:49;11.45;;;5.28;;
16866;SDS011;8550;52.596;13.320;2023-02-13T21:19:51;15.37;;;5.07;;
16866;SDS011;8550;52.596;13.320;2023-02-13T21:24:53;19.10;;;6.97;;
16866;SDS011;8550;52.596;13.320;2023-02-13T21:29:57;23.33;;;7.18;;
16866;SDS011;8550;52.596;13.320;2023-02-13T21:34:59;12.65;;;5.20;;
16866;SDS011;8550;52.596;13.320;2023-02-13T21:40:00;17.53;;;6.30;;
16866;SDS011;8550;52.596;13.320;2023-02-13T21:45:04;15.00;;;5.75;;
16866;SDS011;8550;52.596;13.320;2023-02-13T21:50:06;12.48;;;5.60;;
16866;SDS011;8550;52.596;13.320;2023-02-13T21:55:11;13.70;;;5.60;;
16866;SDS011;8550;52.596;13.320;2023-02-13T22:00:15;16.30;;;6.35;;
16866;SDS011;8550;52.596;13.320;2023-02-13T22:05:17;15.07;;;6.05;;
16866;SDS011;8550;52.596;13.320;2023-02-13T22:10:19;16.27;;;6.43;;
16866;SDS011;8550;52.596;13.320;2023-02-13T22:15:23;17.03;;;6.20;;
16866;SDS011;8550;52.596;13.320;2023-02-13T22:20:24;16.27;;;6.70;;
16866;SDS011;8550;52.596;13.320;2023-02-13T22:25:26;16.45;;;7.65;;
16866;SDS011;8550;52.596;13.320;2023-02-13T22:30:29;16.97;;;6.03;;
16866;SDS011;8550;52.596;13.320;2023-02-13T22:35:31;21.15;;;6.90;;
16866;SDS011;8550;52.596;13.320;2023-02-13T22:40:39;15.93;;;6.18;;
16866;SDS011;8550;52.596;13.320;2023-02-13T22:45:42;17.37;;;6.30;;
16866;SDS011;8550;52.596;13.320;2023-02-13T22:50:44;17.15;;;6.00;;
16866;SDS011;8550;52.596;13.320;2023-02-13T22:55:46;14.98;;;6.50;;
16866;SDS011;8550;52.596;13.320;2023-02-13T23:00:49;19.30;;;5.90;;
16866;SDS011;8550;52.596;13.320;2023-02-13T23:05:51;20.53;;;6.70;;
16866;SDS011;8550;52.596;13.320;2023-02-13T23:10:53;15.23;;;6.40;;
16866;SDS011;8550;52.596;13.320;2023-02-13T23:16:14;10.60;;;5.97;;
16866;SDS011;8550;52.596;13.320;2023-02-13T23:21:16;18.30;;;6.90;;
16866;SDS011;8550;52.596;13.320;2023-02-13T23:26:18;13.18;;;6.32;;
16866;SDS011;8550;52.596;13.320;2023-02-13T23:31:21;11.20;;;5.15;;
16866;SDS011;8550;52.596;13.320;2023-02-13T23:36:23;17.77;;;6.20;;
16866;SDS011;8550;52.596;13.320;2023-02-13T23:41:25;14.75;;;6.43;;
16866;SDS011;8550;52.596;13.320;2023-02-13T23:46:29;16.15;;;6.53;;
16866;SDS011;8550;52.596;13.320;2023-02-13T23:51:30;14.23;;;5.87;;
16866;SDS011;8550;52.596;13.320;2023-02-13T23:56:33;14.80;;;6.57;;
